createdAt,value
2022-12-11T00:02:20.460Z,0.12
2022-12-11T00:07:51.951Z,0.16
2022-12-11T00:13:23.645Z,0.15
2022-12-11T00:18:55.401Z,0.21
2022-12-11T00:24:27.087Z,0.21
2022-12-11T00:29:58.854Z,0.29
2022-12-11T00:35:30.797Z,0.36
2022-12-11T00:41:08.975Z,0.44
2022-12-11T00:46:40.393Z,0.47
2022-12-11T00:52:12.365Z,0.57
2022-12-11T00:57:43.849Z,0.66
2022-12-11T01:03:15.597Z,0.66
2022-12-11T01:08:48.003Z,0.76
2022-12-11T01:14:19.254Z,0.76
2022-12-11T01:19:51.023Z,0.65
2022-12-11T01:25:22.828Z,0.78
2022-12-11T01:30:54.527Z,0.79
2022-12-11T01:36:26.083Z,0.9
2022-12-11T01:42:04.021Z,0.84
2022-12-11T01:47:35.744Z,0.84
2022-12-11T01:53:07.545Z,0.79
2022-12-11T01:58:39.177Z,0.73
2022-12-11T02:04:11.977Z,0.7
2022-12-11T02:09:42.765Z,0.73
2022-12-11T02:15:14.490Z,0.73
2022-12-11T02:20:46.264Z,0.71
2022-12-11T02:26:17.744Z,0.66
2022-12-11T02:31:49.540Z,0.75
2022-12-11T02:37:21.416Z,0.67
2022-12-11T02:42:59.561Z,0.73
2022-12-11T02:48:31.248Z,0.84
2022-12-11T02:54:02.719Z,0.88
2022-12-11T02:59:34.472Z,0.92
2022-12-11T03:05:06.365Z,0.94
2022-12-11T03:10:37.972Z,0.96
2022-12-11T03:16:09.827Z,0.92
2022-12-11T03:21:42.115Z,0.86
2022-12-11T03:27:13.326Z,0.87
2022-12-11T03:32:45.015Z,0.97
2022-12-11T03:38:16.503Z,0.86
2022-12-11T03:43:52.665Z,0.79
2022-12-11T03:49:24.589Z,0.8
2022-12-11T03:54:56.357Z,0.83
2022-12-11T04:00:27.875Z,0.86
2022-12-11T04:05:59.970Z,0.78
2022-12-11T04:11:32.393Z,0.79
2022-12-11T04:17:03.004Z,0.69
2022-12-11T04:22:34.748Z,0.67
2022-12-11T04:28:06.452Z,0.69
2022-12-11T04:33:38.228Z,0.29
2022-12-11T04:39:09.912Z,0.02
2022-12-11T04:44:46.053Z,0.05
2022-12-11T04:50:17.776Z,0.14
2022-12-11T04:55:50.117Z,0.44
2022-12-11T05:01:21.201Z,0.69
2022-12-11T05:06:52.880Z,0.44
2022-12-11T05:12:24.753Z,0.46
2022-12-11T05:17:56.426Z,0.7
2022-12-11T05:23:28.052Z,0.71
2022-12-11T05:28:59.836Z,0.49
2022-12-11T05:34:31.497Z,0.49
2022-12-11T05:40:03.214Z,0.38
2022-12-11T05:45:39.345Z,0.29
2022-12-11T05:51:11.091Z,0.22
2022-12-11T05:56:42.753Z,0.07
2022-12-11T06:02:14.753Z,-0.12
2022-12-11T06:07:46.204Z,-0.18
2022-12-11T06:13:17.975Z,-0.3
2022-12-11T06:18:49.676Z,-0.42
2022-12-11T06:24:21.429Z,-0.51
2022-12-11T06:29:53.152Z,-0.49
2022-12-11T06:35:24.845Z,-0.51
2022-12-11T06:40:56.575Z,-0.59
2022-12-11T06:46:32.695Z,-0.65
2022-12-11T06:52:04.456Z,-0.72
2022-12-11T06:57:36.479Z,-0.72
2022-12-11T07:03:07.884Z,-0.75
2022-12-11T07:08:39.626Z,-0.73
2022-12-11T07:14:11.361Z,-0.71
2022-12-11T07:19:43.114Z,-0.49
2022-12-11T07:25:14.752Z,-0.36
2022-12-11T07:30:46.493Z,-0.3
2022-12-11T07:36:18.289Z,-0.17
2022-12-11T07:41:49.928Z,-0.08
2022-12-11T07:47:26.100Z,0.05
2022-12-11T07:52:57.772Z,0.14
2022-12-11T07:58:29.543Z,0.13
2022-12-11T08:04:01.156Z,0.25
2022-12-11T08:09:32.948Z,0.26
2022-12-11T08:15:04.668Z,0.42
2022-12-11T08:20:36.404Z,0.25
2022-12-11T08:26:08.111Z,0.5
2022-12-11T08:31:39.844Z,0.52
2022-12-11T08:37:11.601Z,0.46
2022-12-11T08:42:43.316Z,0.36
2022-12-11T08:48:21.449Z,0.42
2022-12-11T08:53:53.172Z,0.32
2022-12-11T08:59:24.916Z,0.64
2022-12-11T09:04:56.617Z,0.63
2022-12-11T09:10:28.316Z,0.69
2022-12-11T09:16:00.206Z,0.62
2022-12-11T09:21:31.768Z,0.66
2022-12-11T09:27:03.555Z,0.9
2022-12-11T09:32:35.171Z,1.05
2022-12-11T09:38:07.084Z,1.0
2022-12-11T09:43:38.831Z,1.09
2022-12-11T09:49:16.749Z,0.97
2022-12-11T09:54:48.423Z,0.73
2022-12-11T10:00:20.166Z,0.85
2022-12-11T10:05:51.997Z,0.99
2022-12-11T10:11:23.617Z,0.98
2022-12-11T10:16:55.592Z,1.27
2022-12-11T10:22:27.050Z,1.31
2022-12-11T10:27:58.784Z,1.22
2022-12-11T10:33:30.476Z,1.2
2022-12-11T10:39:02.482Z,1.41
2022-12-11T10:44:33.908Z,1.27
2022-12-11T10:50:10.070Z,1.57
2022-12-11T10:55:41.782Z,1.44
2022-12-11T11:01:13.730Z,1.19
2022-12-11T11:06:45.269Z,1.49
2022-12-11T11:12:17.009Z,1.35
2022-12-11T11:17:54.431Z,1.36
2022-12-11T11:23:20.389Z,1.34
2022-12-11T11:28:52.139Z,1.23
2022-12-11T11:34:23.922Z,1.59
2022-12-11T11:39:55.950Z,1.84
2022-12-11T11:45:27.700Z,1.74
2022-12-11T11:51:07.936Z,1.96
2022-12-11T11:56:39.683Z,1.76
2022-12-11T12:02:11.384Z,1.33
2022-12-11T12:07:43.314Z,1.69
2022-12-11T12:13:44.650Z,1.9
2022-12-11T12:18:46.413Z,1.65
2022-12-11T12:24:18.097Z,1.87
2022-12-11T12:29:49.845Z,1.9
2022-12-11T12:35:21.644Z,1.83
2022-12-11T12:40:53.266Z,1.87
2022-12-11T12:46:24.976Z,2.09
2022-12-11T12:52:01.181Z,1.96
2022-12-11T12:57:32.923Z,1.95
2022-12-11T13:03:04.792Z,1.85
2022-12-11T13:08:36.515Z,1.93
2022-12-11T13:14:08.129Z,1.74
2022-12-11T13:19:42.667Z,1.51
2022-12-11T13:25:11.815Z,1.85
2022-12-11T13:30:43.278Z,1.74
2022-12-11T13:36:16.839Z,1.71
2022-12-11T13:41:47.181Z,1.92
2022-12-11T13:47:18.721Z,1.98
2022-12-11T13:52:54.915Z,2.01
2022-12-11T13:58:26.370Z,2.0
2022-12-11T14:03:58.398Z,2.04
2022-12-11T14:09:30.118Z,2.02
2022-12-11T14:15:02.219Z,1.86
2022-12-11T14:20:33.659Z,1.61
2022-12-11T14:26:05.141Z,1.86
2022-12-11T14:31:36.887Z,1.93
2022-12-11T14:37:08.584Z,1.66
2022-12-11T14:42:40.457Z,1.97
2022-12-11T14:48:12.040Z,1.92
2022-12-11T14:53:50.264Z,1.94
2022-12-11T14:59:22.896Z,1.98
2022-12-11T15:04:53.874Z,1.93
2022-12-11T15:10:25.337Z,1.9
2022-12-11T15:15:57.289Z,2.0
2022-12-11T15:21:28.809Z,2.02
2022-12-11T15:27:00.513Z,1.85
2022-12-11T15:32:32.410Z,1.77
2022-12-11T15:38:04.525Z,1.81
2022-12-11T15:43:35.685Z,1.79
2022-12-11T15:49:07.469Z,1.68
2022-12-11T15:54:43.580Z,1.66
2022-12-11T16:00:15.987Z,1.61
2022-12-11T16:05:47.129Z,1.79
2022-12-11T16:11:19.275Z,1.82
2022-12-11T16:16:51.098Z,1.67
2022-12-11T16:22:22.284Z,1.7
2022-12-11T16:27:54.043Z,1.58
2022-12-11T16:33:26.107Z,1.6
2022-12-11T16:38:57.689Z,1.55
2022-12-11T16:44:29.252Z,1.49
2022-12-11T16:50:00.896Z,1.47
2022-12-11T16:55:37.245Z,1.46
2022-12-11T17:01:08.824Z,1.25
2022-12-11T17:06:40.465Z,1.32
2022-12-11T17:12:12.874Z,1.21
2022-12-11T17:17:44.213Z,1.21
2022-12-11T17:23:15.697Z,1.2
2022-12-11T17:28:47.385Z,1.19
2022-12-11T17:34:19.404Z,1.31
2022-12-11T17:39:51.415Z,1.33
2022-12-11T17:45:22.624Z,1.27
2022-12-11T17:50:54.285Z,1.24
2022-12-11T17:56:30.584Z,1.23
2022-12-11T18:02:02.184Z,1.22
2022-12-11T18:07:33.832Z,1.14
2022-12-11T18:13:05.849Z,1.07
2022-12-11T18:18:37.203Z,1.01
2022-12-11T18:24:09.061Z,0.96
2022-12-11T18:29:40.948Z,0.85
2022-12-11T18:35:12.740Z,0.7
2022-12-11T18:40:44.489Z,0.59
2022-12-11T18:46:16.162Z,0.53
2022-12-11T18:51:47.941Z,0.4
2022-12-11T18:57:23.778Z,0.32
2022-12-11T19:02:55.692Z,0.22
2022-12-11T19:08:27.280Z,0.22
2022-12-11T19:13:59.457Z,0.19
2022-12-11T19:19:30.652Z,0.17
2022-12-11T19:25:02.404Z,0.01
2022-12-11T19:30:34.596Z,-0.11
2022-12-11T19:36:05.852Z,-0.08
2022-12-11T19:41:37.829Z,-0.15
2022-12-11T19:47:09.363Z,-0.24
2022-12-11T19:52:45.925Z,-0.28
2022-12-11T19:58:17.128Z,-0.37
2022-12-11T20:03:48.821Z,-0.31
2022-12-11T20:09:20.655Z,-0.25
2022-12-11T20:14:52.287Z,-0.09
2022-12-11T20:20:24.068Z,-0.03
2022-12-11T20:25:58.776Z,0.01
2022-12-11T20:31:27.717Z,0.07
2022-12-11T20:36:59.219Z,0.23
2022-12-11T20:42:31.117Z,0.34
2022-12-11T20:48:02.889Z,0.34
2022-12-11T20:53:34.514Z,0.4
2022-12-11T20:59:12.509Z,0.42
2022-12-11T21:04:44.245Z,0.51
2022-12-11T21:10:16.208Z,0.52
2022-12-11T21:15:47.690Z,0.54
2022-12-11T21:21:19.680Z,0.6
2022-12-11T21:26:51.637Z,0.6
2022-12-11T21:32:22.866Z,0.7
2022-12-11T21:37:54.655Z,0.74
2022-12-11T21:43:26.298Z,0.44
2022-12-11T21:48:58.011Z,0.5
2022-12-11T21:54:30.023Z,0.53
2022-12-11T22:00:07.854Z,0.56
2022-12-11T22:05:40.036Z,0.64
2022-12-11T22:11:11.317Z,0.4
2022-12-11T22:16:43.037Z,0.35
2022-12-11T22:22:15.382Z,0.5
2022-12-11T22:27:46.608Z,0.59
2022-12-11T22:33:18.311Z,0.63
2022-12-11T22:38:49.888Z,0.55
2022-12-11T22:44:21.656Z,0.65
2022-12-11T22:49:53.324Z,0.46
2022-12-11T22:55:25.212Z,0.43
2022-12-11T23:01:02.362Z,0.62
2022-12-11T23:06:32.901Z,0.73
2022-12-11T23:12:04.606Z,0.6
2022-12-11T23:17:36.390Z,0.7
2022-12-11T23:23:08.212Z,0.8
2022-12-11T23:28:39.809Z,0.85
2022-12-11T23:34:11.508Z,0.88
2022-12-11T23:39:43.444Z,0.9
2022-12-11T23:45:15.211Z,0.85
2022-12-11T23:50:46.888Z,0.81
2022-12-11T23:56:18.411Z,0.91
